Grand Marais, Minnesota
Current Conditions -  °F | °C
As of 12:13 PM on Sunday 25 Jan 2015 (Local Time) from KCKC Reporting Station
Clear Clear  
Wind Chill:   Ceiling: Unl
Heat Index:   Visibility: 10mi
Dew Point: -11°   Wind: 0mph
Humidity: 40%   Direction: NA
Pressure: 30.02"   Gusts: NA
Location:  47.75°N, 90.33°W
Report Text: KCKC 251813Z AUTO 00000KT 10SM CLR M13/M24 A3002 RMK AO2
Loading
Personal Weather Stations






























Interactive Weather Map New forecast layout! Learn more

10-Day Weather Forecast

Advertisements
Track Severe Weather on mobile